createdAt,value
2023-01-03T00:01:48.768Z,100.00
2023-01-03T00:04:17.904Z,100.00
2023-01-03T00:06:50.319Z,100.00
2023-01-03T00:09:22.467Z,100.00
2023-01-03T00:12:11.800Z,100.00
2023-01-03T00:14:44.762Z,100.00
2023-01-03T00:17:14.357Z,100.00
2023-01-03T00:19:44.989Z,100.00
2023-01-03T00:22:16.959Z,100.00
2023-01-03T00:24:50.155Z,100.00
2023-01-03T00:27:18.919Z,100.00
2023-01-03T00:29:47.276Z,100.00
2023-01-03T00:32:16.137Z,100.00
2023-01-03T00:34:46.713Z,99.29
2023-01-03T00:37:17.101Z,99.19
2023-01-03T00:39:45.865Z,99.76
2023-01-03T00:42:14.822Z,99.81
2023-01-03T00:44:43.238Z,99.90
2023-01-03T00:47:11.880Z,99.58
2023-01-03T00:49:54.170Z,98.92
2023-01-03T00:52:24.249Z,99.23
2023-01-03T00:54:53.060Z,98.40
2023-01-03T00:57:21.679Z,98.35
2023-01-03T00:59:50.130Z,98.63
2023-01-03T01:02:20.446Z,98.68
2023-01-03T01:04:49.387Z,98.35
2023-01-03T01:07:17.783Z,98.14
2023-01-03T01:09:47.523Z,98.41
2023-01-03T01:12:15.841Z,98.28
2023-01-03T01:14:44.202Z,98.82
2023-01-03T01:17:13.871Z,99.09
2023-01-03T01:19:45.876Z,99.32
2023-01-03T01:22:14.878Z,99.64
2023-01-03T01:24:43.405Z,99.05
2023-01-03T01:27:13.137Z,98.67
2023-01-03T01:29:41.493Z,98.79
2023-01-03T01:32:09.838Z,98.96
2023-01-03T01:34:38.514Z,98.58
2023-01-03T01:37:06.871Z,98.94
2023-01-03T01:39:35.726Z,99.51
2023-01-03T01:42:30.888Z,99.53
2023-01-03T01:45:02.393Z,99.64
2023-01-03T01:47:38.149Z,99.94
2023-01-03T01:50:23.122Z,100.00
2023-01-03T01:53:00.308Z,100.00
2023-01-03T01:55:33.132Z,100.00
2023-01-03T01:58:02.887Z,100.00
2023-01-03T02:00:33.981Z,100.00
2023-01-03T02:03:02.849Z,100.00
2023-01-03T02:05:35.426Z,100.00
2023-01-03T02:08:04.748Z,100.00
2023-01-03T02:11:01.270Z,100.00
2023-01-03T02:13:40.771Z,100.00
2023-01-03T02:16:29.928Z,99.95
2023-01-03T02:19:17.793Z,100.00
2023-01-03T02:22:21.446Z,100.00
2023-01-03T02:25:28.498Z,99.76
2023-01-03T02:28:34.452Z,99.87
2023-01-03T02:31:09.737Z,99.67
2023-01-03T02:33:43.281Z,99.85
2023-01-03T02:36:21.818Z,100.00
2023-01-03T02:39:01.983Z,100.00
2023-01-03T02:41:41.607Z,100.00
2023-01-03T02:44:18.461Z,100.00
2023-01-03T02:46:52.309Z,100.00
2023-01-03T02:49:29.065Z,100.00
2023-01-03T02:52:03.108Z,100.00
2023-01-03T02:54:38.303Z,100.00
2023-01-03T02:57:12.470Z,100.00
2023-01-03T02:59:48.300Z,100.00
2023-01-03T03:02:21.160Z,100.00
2023-01-03T03:04:54.284Z,100.00
2023-01-03T03:07:26.944Z,100.00
2023-01-03T03:10:15.389Z,100.00
2023-01-03T03:13:03.689Z,100.00
2023-01-03T03:15:38.899Z,100.00
2023-01-03T03:18:16.315Z,100.00
2023-01-03T03:21:02.240Z,100.00
2023-01-03T03:23:54.117Z,100.00
2023-01-03T03:26:26.840Z,100.00
2023-01-03T03:29:00.411Z,100.00
2023-01-03T03:31:34.785Z,100.00
2023-01-03T03:34:11.879Z,100.00
2023-01-03T03:36:48.059Z,100.00
2023-01-03T03:39:34.806Z,100.00
2023-01-03T03:42:33.155Z,100.00
2023-01-03T03:45:07.828Z,100.00
2023-01-03T03:47:45.564Z,100.00
2023-01-03T03:50:23.689Z,100.00
2023-01-03T03:52:58.651Z,100.00
2023-01-03T03:55:32.504Z,100.00
2023-01-03T03:58:04.110Z,100.00
2023-01-03T04:00:39.373Z,100.00
2023-01-03T04:03:10.851Z,100.00
2023-01-03T04:05:45.482Z,100.00
2023-01-03T04:08:13.945Z,100.00
2023-01-03T04:10:44.295Z,100.00
2023-01-03T04:13:12.964Z,100.00
2023-01-03T04:15:41.350Z,100.00
2023-01-03T04:18:09.700Z,100.00
2023-01-03T04:20:38.048Z,100.00
2023-01-03T04:23:07.792Z,100.00
2023-01-03T04:25:36.223Z,100.00
2023-01-03T04:28:05.246Z,100.00
2023-01-03T04:30:33.747Z,100.00
2023-01-03T04:33:04.963Z,100.00
2023-01-03T04:35:33.840Z,100.00
2023-01-03T04:38:02.292Z,100.00
2023-01-03T04:40:32.205Z,100.00
2023-01-03T04:43:17.926Z,100.00
2023-01-03T04:45:46.371Z,100.00
2023-01-03T04:48:14.724Z,100.00
2023-01-03T04:50:43.095Z,100.00
2023-01-03T04:53:15.017Z,100.00
2023-01-03T04:55:49.117Z,100.00
2023-01-03T04:58:17.610Z,100.00
2023-01-03T05:00:46.238Z,100.00
2023-01-03T05:03:14.964Z,100.00
2023-01-03T05:05:43.419Z,100.00
2023-01-03T05:08:13.416Z,100.00
2023-01-03T05:10:43.017Z,100.00
2023-01-03T05:13:12.803Z,100.00
2023-01-03T05:15:41.139Z,100.00
2023-01-03T05:18:09.478Z,100.00
2023-01-03T05:20:56.646Z,100.00
2023-01-03T05:23:42.994Z,100.00
2023-01-03T05:26:15.167Z,100.00
2023-01-03T05:28:48.395Z,100.00
2023-01-03T05:31:16.926Z,100.00
2023-01-03T05:33:45.536Z,100.00
2023-01-03T05:36:16.229Z,100.00
2023-01-03T05:38:45.041Z,100.00
2023-01-03T05:41:35.425Z,100.00
2023-01-03T05:44:05.557Z,100.00
2023-01-03T05:46:34.492Z,100.00
2023-01-03T05:49:02.842Z,100.00
2023-01-03T05:51:31.509Z,100.00
2023-01-03T05:53:59.895Z,100.00
2023-01-03T05:56:29.298Z,100.00
2023-01-03T05:58:57.642Z,100.00
2023-01-03T06:01:28.621Z,100.00
2023-01-03T06:03:57.447Z,100.00
2023-01-03T06:06:25.983Z,100.00
2023-01-03T06:08:54.888Z,100.00
2023-01-03T06:11:24.318Z,100.00
2023-01-03T06:13:52.668Z,100.00
2023-01-03T06:16:39.391Z,100.00
2023-01-03T06:19:10.167Z,100.00
2023-01-03T06:21:39.153Z,100.00
2023-01-03T06:24:07.975Z,100.00
2023-01-03T06:26:36.989Z,100.00
2023-01-03T06:29:06.264Z,100.00
2023-01-03T06:31:34.899Z,100.00
2023-01-03T06:34:04.650Z,100.00
2023-01-03T06:36:37.422Z,100.00
2023-01-03T06:39:05.897Z,100.00
2023-01-03T06:41:34.215Z,100.00
2023-01-03T06:44:02.554Z,100.00
2023-01-03T06:46:48.637Z,100.00
2023-01-03T06:49:36.966Z,100.00
2023-01-03T06:52:31.375Z,100.00
2023-01-03T06:54:59.897Z,100.00
2023-01-03T06:57:28.339Z,100.00
2023-01-03T06:59:56.878Z,100.00
2023-01-03T07:02:25.368Z,100.00
2023-01-03T07:04:53.997Z,100.00
2023-01-03T07:07:23.907Z,100.00
2023-01-03T07:09:52.263Z,100.00
2023-01-03T07:12:38.381Z,100.00
2023-01-03T07:15:08.126Z,100.00
2023-01-03T07:17:36.502Z,100.00
2023-01-03T07:20:05.495Z,100.00
2023-01-03T07:22:35.230Z,100.00
2023-01-03T07:25:05.550Z,100.00
2023-01-03T07:27:33.937Z,100.00
2023-01-03T07:30:02.264Z,100.00
2023-01-03T07:32:30.676Z,100.00
2023-01-03T07:34:59.155Z,100.00
2023-01-03T07:37:27.601Z,100.00
2023-01-03T07:39:57.338Z,100.00
2023-01-03T07:42:43.409Z,100.00
2023-01-03T07:45:12.825Z,100.00
2023-01-03T07:47:45.555Z,100.00
2023-01-03T07:50:14.252Z,100.00
2023-01-03T07:52:42.659Z,100.00
2023-01-03T07:55:12.555Z,100.00
2023-01-03T07:57:40.997Z,100.00
2023-01-03T08:00:11.483Z,100.00
2023-01-03T08:02:42.479Z,100.00
2023-01-03T08:05:11.410Z,100.00
2023-01-03T08:07:39.813Z,100.00
2023-01-03T08:10:26.597Z,100.00
2023-01-03T08:13:13.841Z,100.00
2023-01-03T08:15:45.105Z,100.00
2023-01-03T08:18:14.245Z,100.00
2023-01-03T08:20:42.864Z,100.00
2023-01-03T08:23:11.482Z,100.00
2023-01-03T08:25:40.754Z,100.00
2023-01-03T08:28:12.564Z,100.00
2023-01-03T08:30:44.528Z,100.00
2023-01-03T08:33:16.434Z,100.00
2023-01-03T08:35:48.760Z,100.00
2023-01-03T08:38:21.792Z,100.00
2023-01-03T08:40:50.325Z,100.00
2023-01-03T08:43:20.475Z,100.00
2023-01-03T08:45:50.059Z,100.00
2023-01-03T08:48:21.618Z,100.00
2023-01-03T08:50:50.046Z,100.00
2023-01-03T08:53:18.832Z,100.00
2023-01-03T08:55:47.178Z,100.00
2023-01-03T08:58:15.627Z,100.00
2023-01-03T09:00:45.370Z,100.00
2023-01-03T09:03:14.170Z,100.00
2023-01-03T09:05:42.741Z,100.00
2023-01-03T09:08:11.438Z,100.00
2023-01-03T09:10:47.113Z,100.00
2023-01-03T09:13:16.130Z,100.00
2023-01-03T09:15:45.929Z,100.00
2023-01-03T09:18:14.941Z,100.00
2023-01-03T09:20:43.382Z,100.00
2023-01-03T09:23:11.799Z,100.00
2023-01-03T09:25:40.219Z,100.00
2023-01-03T09:28:08.661Z,100.00
2023-01-03T09:30:37.051Z,100.00
2023-01-03T09:33:07.233Z,100.00
2023-01-03T09:35:35.671Z,100.00
2023-01-03T09:38:04.123Z,100.00
2023-01-03T09:40:37.118Z,100.00
2023-01-03T09:43:21.379Z,100.00
2023-01-03T09:45:55.098Z,100.00
2023-01-03T09:48:34.645Z,100.00
2023-01-03T09:51:19.621Z,100.00
2023-01-03T09:54:08.767Z,100.00
2023-01-03T09:56:54.869Z,100.00
2023-01-03T09:59:41.889Z,100.00
2023-01-03T10:02:49.140Z,100.00
2023-01-03T10:05:37.938Z,100.00
2023-01-03T10:08:23.848Z,100.00
2023-01-03T10:11:02.079Z,100.00
2023-01-03T10:13:50.393Z,100.00
2023-01-03T10:16:33.779Z,100.00
2023-01-03T10:19:31.252Z,100.00
2023-01-03T10:22:10.128Z,100.00
2023-01-03T10:24:45.657Z,100.00
2023-01-03T10:27:19.352Z,100.00
2023-01-03T10:29:48.950Z,99.42
2023-01-03T10:32:39.330Z,96.26
2023-01-03T10:35:21.240Z,95.42
2023-01-03T10:37:53.297Z,93.87
2023-01-03T10:40:22.900Z,94.12
2023-01-03T10:42:55.467Z,92.97
2023-01-03T10:45:24.129Z,92.63
2023-01-03T10:48:00.456Z,96.31
2023-01-03T10:50:30.530Z,97.22
2023-01-03T10:53:07.462Z,90.04
2023-01-03T10:55:46.146Z,91.15
2023-01-03T10:58:27.073Z,91.89
2023-01-03T11:01:20.288Z,90.05
2023-01-03T11:04:14.800Z,91.70
2023-01-03T11:07:01.351Z,91.84
2023-01-03T11:09:50.419Z,89.34
2023-01-03T11:12:29.635Z,91.11
2023-01-03T11:15:01.084Z,90.35
2023-01-03T11:17:31.384Z,90.37
2023-01-03T11:19:59.902Z,90.84
2023-01-03T11:22:38.350Z,90.35
2023-01-03T11:25:34.781Z,89.56
2023-01-03T11:28:32.745Z,87.63
2023-01-03T11:31:08.473Z,88.09
2023-01-03T11:33:53.170Z,88.47
2023-01-03T11:36:34.510Z,88.28
2023-01-03T11:39:26.531Z,87.80
2023-01-03T11:42:33.266Z,88.68
2023-01-03T11:45:48.717Z,88.23
2023-01-03T11:48:42.195Z,88.83
2023-01-03T11:51:20.093Z,88.68
2023-01-03T11:54:03.994Z,88.31
2023-01-03T11:56:36.278Z,87.88
2023-01-03T11:59:47.210Z,87.58
2023-01-03T12:03:09.385Z,87.25
2023-01-03T12:05:45.846Z,87.02
2023-01-03T12:08:44.912Z,87.80
2023-01-03T12:11:28.984Z,87.05
2023-01-03T12:14:05.327Z,87.34
2023-01-03T12:16:40.194Z,87.29
2023-01-03T12:19:25.424Z,87.86
2023-01-03T12:21:59.978Z,88.56
2023-01-03T12:24:35.723Z,88.15
2023-01-03T12:27:11.600Z,88.41
2023-01-03T12:29:53.081Z,88.39
2023-01-03T12:32:35.031Z,88.50
2023-01-03T12:35:20.715Z,89.50
2023-01-03T12:37:52.184Z,89.42
2023-01-03T12:40:31.876Z,89.08
2023-01-03T12:43:10.073Z,88.67
2023-01-03T12:45:51.677Z,88.38
2023-01-03T12:48:46.814Z,88.15
2023-01-03T12:51:19.595Z,88.14
2023-01-03T12:53:54.005Z,87.87
2023-01-03T12:56:45.866Z,87.54
2023-01-03T12:59:39.634Z,87.94
2023-01-03T13:02:28.386Z,88.36
2023-01-03T13:05:13.481Z,87.94
2023-01-03T13:07:47.901Z,87.87
2023-01-03T13:10:19.859Z,88.12
2023-01-03T13:12:53.194Z,87.77
2023-01-03T13:15:36.236Z,87.38
2023-01-03T13:18:37.982Z,87.82
2023-01-03T13:21:56.966Z,89.47
2023-01-03T13:24:46.146Z,88.39
2023-01-03T13:27:38.282Z,88.30
2023-01-03T13:30:24.617Z,87.82
2023-01-03T13:32:56.938Z,88.00
2023-01-03T13:35:37.528Z,86.83
2023-01-03T13:38:27.867Z,86.68
2023-01-03T13:41:18.226Z,86.66
2023-01-03T13:43:51.999Z,86.12
2023-01-03T13:46:24.787Z,86.29
2023-01-03T13:48:59.261Z,86.94
2023-01-03T13:51:54.149Z,86.37
2023-01-03T13:54:58.801Z,86.85
2023-01-03T13:57:39.764Z,87.35
2023-01-03T14:00:23.438Z,87.09
2023-01-03T14:03:46.180Z,87.61
2023-01-03T14:06:45.352Z,87.56
2023-01-03T14:09:48.490Z,87.65
2023-01-03T14:12:37.276Z,87.53
2023-01-03T14:15:25.475Z,88.13
2023-01-03T14:17:58.193Z,87.58
2023-01-03T14:20:33.576Z,87.41
2023-01-03T14:23:23.940Z,87.59
2023-01-03T14:26:07.693Z,87.67
2023-01-03T14:28:36.192Z,87.46
2023-01-03T14:31:09.227Z,87.10
2023-01-03T14:33:42.737Z,86.99
2023-01-03T14:36:16.607Z,86.65
2023-01-03T14:38:50.157Z,86.75
2023-01-03T14:41:31.372Z,86.58
2023-01-03T14:44:01.846Z,86.48
2023-01-03T14:46:31.644Z,86.47
2023-01-03T14:49:04.158Z,86.60
2023-01-03T14:51:34.684Z,85.99
2023-01-03T14:54:04.841Z,86.19
2023-01-03T14:56:35.015Z,86.16
2023-01-03T14:59:04.013Z,86.18
2023-01-03T15:01:32.697Z,86.29
2023-01-03T15:04:01.750Z,86.34
2023-01-03T15:06:33.641Z,85.88
2023-01-03T15:09:20.012Z,85.77
2023-01-03T15:11:59.361Z,86.22
2023-01-03T15:14:30.978Z,86.36
2023-01-03T15:17:06.339Z,85.86
2023-01-03T15:19:36.244Z,86.14
2023-01-03T15:22:15.570Z,86.24
2023-01-03T15:24:47.860Z,85.80
2023-01-03T15:27:51.856Z,85.78
2023-01-03T15:30:25.566Z,85.85
2023-01-03T15:33:00.636Z,86.00
2023-01-03T15:35:38.681Z,86.03
2023-01-03T15:38:16.140Z,86.09
2023-01-03T15:40:47.337Z,86.31
2023-01-03T15:43:21.934Z,85.89
2023-01-03T15:46:02.160Z,86.50
2023-01-03T15:48:35.254Z,86.40
2023-01-03T15:51:06.016Z,86.86
2023-01-03T15:53:43.170Z,86.79
2023-01-03T15:56:20.040Z,87.19
2023-01-03T15:58:52.902Z,87.82
2023-01-03T16:01:22.515Z,87.91
2023-01-03T16:03:52.434Z,87.58
2023-01-03T16:06:20.959Z,88.01
2023-01-03T16:08:49.404Z,88.31
2023-01-03T16:11:22.971Z,88.92
2023-01-03T16:13:57.163Z,89.25
2023-01-03T16:16:29.156Z,89.42
2023-01-03T16:18:58.419Z,90.23
2023-01-03T16:21:27.526Z,90.28
2023-01-03T16:23:57.088Z,91.17
2023-01-03T16:26:26.021Z,91.55
2023-01-03T16:28:56.435Z,91.86
2023-01-03T16:31:31.997Z,92.52
2023-01-03T16:34:00.757Z,93.05
2023-01-03T16:36:33.771Z,92.97
2023-01-03T16:39:02.200Z,92.89
2023-01-03T16:41:30.562Z,93.11
2023-01-03T16:44:00.227Z,93.53
2023-01-03T16:46:30.625Z,93.83
2023-01-03T16:49:01.064Z,94.28
2023-01-03T16:51:33.053Z,94.54
2023-01-03T16:54:03.751Z,95.07
2023-01-03T16:56:32.272Z,94.97
2023-01-03T16:59:01.981Z,95.35
2023-01-03T17:01:30.415Z,95.41
2023-01-03T17:03:58.918Z,94.84
2023-01-03T17:06:38.075Z,94.46
2023-01-03T17:09:11.851Z,93.91
2023-01-03T17:11:40.538Z,93.71
2023-01-03T17:14:18.547Z,93.26
2023-01-03T17:16:47.850Z,93.09
2023-01-03T17:20:01.204Z,92.72
2023-01-03T17:22:12.294Z,92.41
2023-01-03T17:24:41.487Z,92.66
2023-01-03T17:27:18.528Z,92.38
2023-01-03T17:29:51.217Z,92.32
2023-01-03T17:32:21.706Z,92.61
2023-01-03T17:34:50.057Z,92.84
2023-01-03T17:37:22.200Z,92.71
2023-01-03T17:39:58.660Z,92.56
2023-01-03T17:42:29.283Z,92.65
2023-01-03T17:45:16.676Z,93.17
2023-01-03T17:48:03.236Z,93.12
2023-01-03T17:50:33.221Z,93.11
2023-01-03T17:53:03.011Z,93.02
2023-01-03T17:55:32.541Z,92.76
2023-01-03T17:58:03.081Z,92.52
2023-01-03T18:00:33.751Z,92.30
2023-01-03T18:03:02.353Z,92.91
2023-01-03T18:05:31.084Z,92.91
2023-01-03T18:08:02.363Z,93.06
2023-01-03T18:10:41.728Z,93.43
2023-01-03T18:13:23.593Z,93.66
2023-01-03T18:15:54.008Z,93.76
2023-01-03T18:18:25.718Z,93.72
2023-01-03T18:20:55.074Z,94.00
2023-01-03T18:23:28.884Z,94.11
2023-01-03T18:26:01.518Z,93.99
2023-01-03T18:28:30.691Z,94.15
2023-01-03T18:31:00.583Z,94.83
2023-01-03T18:33:29.008Z,94.54
2023-01-03T18:35:57.544Z,94.45
2023-01-03T18:38:29.655Z,94.52
2023-01-03T18:41:05.040Z,94.74
2023-01-03T18:43:34.584Z,94.59
2023-01-03T18:46:04.974Z,95.04
2023-01-03T18:48:33.523Z,95.29
2023-01-03T18:51:01.955Z,95.54
2023-01-03T18:53:33.861Z,96.06
2023-01-03T18:56:03.023Z,96.38
2023-01-03T18:58:35.719Z,96.31
2023-01-03T19:01:07.285Z,96.40
2023-01-03T19:03:36.802Z,96.36
2023-01-03T19:06:18.114Z,96.57
2023-01-03T19:08:46.704Z,96.76
2023-01-03T19:11:18.687Z,96.89
2023-01-03T19:13:54.865Z,97.93
2023-01-03T19:16:37.325Z,98.12
2023-01-03T19:19:07.184Z,97.95
2023-01-03T19:21:38.875Z,98.31
2023-01-03T19:24:20.879Z,98.54
2023-01-03T19:26:53.297Z,98.32
2023-01-03T19:29:24.937Z,98.29
2023-01-03T19:31:57.697Z,98.22
2023-01-03T19:34:28.368Z,98.28
2023-01-03T19:36:56.810Z,98.70
2023-01-03T19:39:27.293Z,98.29
2023-01-03T19:42:17.128Z,98.17
2023-01-03T19:44:46.091Z,97.95
2023-01-03T19:47:18.152Z,97.70
2023-01-03T19:49:48.504Z,97.36
2023-01-03T19:52:17.720Z,96.00
2023-01-03T19:54:46.278Z,96.11
2023-01-03T19:57:22.611Z,95.93
2023-01-03T19:59:54.882Z,95.85
2023-01-03T20:02:39.276Z,95.21
2023-01-03T20:05:19.283Z,94.90
2023-01-03T20:07:48.599Z,94.88
2023-01-03T20:10:20.137Z,94.60
2023-01-03T20:12:49.943Z,94.55
2023-01-03T20:15:25.938Z,94.60
2023-01-03T20:17:56.132Z,94.69
2023-01-03T20:20:28.401Z,94.62
2023-01-03T20:23:05.171Z,94.60
2023-01-03T20:25:37.060Z,93.98
2023-01-03T20:28:06.416Z,94.39
2023-01-03T20:30:35.936Z,94.26
2023-01-03T20:33:05.844Z,94.45
2023-01-03T20:36:08.787Z,95.30
2023-01-03T20:38:27.061Z,95.29
2023-01-03T20:40:56.172Z,95.37
2023-01-03T20:43:25.710Z,95.79
2023-01-03T20:45:56.627Z,95.71
2023-01-03T20:48:27.023Z,95.42
2023-01-03T20:50:55.717Z,95.32
2023-01-03T20:53:26.544Z,95.74
2023-01-03T20:55:55.317Z,95.76
2023-01-03T20:58:26.288Z,95.54
2023-01-03T21:01:02.083Z,95.26
2023-01-03T21:03:35.929Z,95.34
2023-01-03T21:06:07.464Z,95.23
2023-01-03T21:08:53.521Z,95.28
2023-01-03T21:11:22.335Z,95.34
2023-01-03T21:13:50.846Z,95.02
2023-01-03T21:16:29.278Z,95.03
2023-01-03T21:19:06.469Z,94.81
2023-01-03T21:21:35.611Z,94.55
2023-01-03T21:24:04.836Z,94.22
2023-01-03T21:26:33.416Z,94.46
2023-01-03T21:29:01.976Z,94.30
2023-01-03T21:31:30.549Z,94.15
2023-01-03T21:34:00.689Z,93.45
2023-01-03T21:36:31.607Z,93.85
2023-01-03T21:39:01.288Z,94.03
2023-01-03T21:41:32.592Z,94.50
2023-01-03T21:44:06.599Z,94.31
2023-01-03T21:46:34.970Z,95.02
2023-01-03T21:49:04.706Z,94.93
2023-01-03T21:51:38.854Z,95.07
2023-01-03T21:54:08.897Z,94.26
2023-01-03T21:56:45.133Z,93.97
2023-01-03T21:59:14.909Z,93.63
2023-01-03T22:02:02.875Z,93.74
2023-01-03T22:04:33.380Z,93.90
2023-01-03T22:07:02.371Z,94.67
2023-01-03T22:09:50.182Z,94.62
2023-01-03T22:12:20.381Z,95.35
2023-01-03T22:14:48.789Z,95.28
2023-01-03T22:17:18.297Z,95.97
2023-01-03T22:19:48.112Z,95.46
2023-01-03T22:22:16.482Z,94.85
2023-01-03T22:24:44.820Z,94.89
2023-01-03T22:27:13.148Z,95.21
2023-01-03T22:29:41.561Z,95.26
2023-01-03T22:32:10.596Z,94.92
2023-01-03T22:34:39.848Z,94.64
2023-01-03T22:37:09.575Z,94.71
2023-01-03T22:39:37.985Z,95.02
2023-01-03T22:42:06.456Z,95.14
2023-01-03T22:44:34.924Z,94.94
2023-01-03T22:47:04.552Z,94.72
2023-01-03T22:49:33.285Z,94.55
2023-01-03T22:52:01.671Z,94.48
2023-01-03T22:54:31.416Z,94.68
2023-01-03T22:57:00.047Z,94.68
2023-01-03T22:59:30.320Z,94.54
2023-01-03T23:01:59.133Z,95.22
2023-01-03T23:04:28.006Z,94.95
2023-01-03T23:06:56.952Z,95.58
2023-01-03T23:09:25.690Z,95.59
2023-01-03T23:12:12.768Z,96.27
2023-01-03T23:14:41.230Z,96.15
2023-01-03T23:17:27.154Z,96.42
2023-01-03T23:19:55.521Z,96.29
2023-01-03T23:22:23.886Z,96.61
2023-01-03T23:24:53.801Z,97.22
2023-01-03T23:27:27.405Z,97.10
2023-01-03T23:29:56.258Z,97.23
2023-01-03T23:32:24.631Z,98.31
2023-01-03T23:34:52.974Z,100.00
2023-01-03T23:37:21.417Z,100.00
2023-01-03T23:39:49.813Z,100.00
2023-01-03T23:42:18.133Z,99.07
2023-01-03T23:44:47.896Z,98.16
2023-01-03T23:47:16.239Z,99.87
2023-01-03T23:49:44.672Z,100.00
2023-01-03T23:52:13.027Z,99.49
2023-01-03T23:54:41.340Z,100.00
2023-01-03T23:57:09.641Z,99.40
2023-01-03T23:59:38.055Z,99.66
